sensor_id;sensor_type;location;lat;lon;timestamp;temperature;humidity
4904;DHT22;2467;48.142;11.616;2023-02-15T00:00:32;2.50;99.90
4904;DHT22;2467;48.142;11.616;2023-02-15T00:01:07;2.50;99.90
4904;DHT22;2467;48.142;11.616;2023-02-15T00:01:39;2.50;99.90
4904;DHT22;2467;48.142;11.616;2023-02-15T00:02:12;2.50;99.90
4904;DHT22;2467;48.142;11.616;2023-02-15T00:02:44;2.50;99.90
4904;DHT22;2467;48.142;11.616;2023-02-15T00:03:16;2.50;99.90
4904;DHT22;2467;48.142;11.616;2023-02-15T00:03:50;2.30;99.90
4904;DHT22;2467;48.142;11.616;2023-02-15T00:04:23;2.50;99.90
4904;DHT22;2467;48.142;11.616;2023-02-15T00:04:55;2.50;99.90
4904;DHT22;2467;48.142;11.616;2023-02-15T00:05:30;2.50;99.90
4904;DHT22;2467;48.142;11.616;2023-02-15T00:06:03;2.50;99.90
4904;DHT22;2467;48.142;11.616;2023-02-15T00:06:35;2.50;99.90
4904;DHT22;2467;48.142;11.616;2023-02-15T00:07:08;2.50;99.90
4904;DHT22;2467;48.142;11.616;2023-02-15T00:07:40;2.40;99.90
4904;DHT22;2467;48.142;11.616;2023-02-15T00:08:11;2.40;99.90
4904;DHT22;2467;48.142;11.616;2023-02-15T00:08:44;2.40;99.90
4904;DHT22;2467;48.142;11.616;2023-02-15T00:09:16;2.40;99.90
4904;DHT22;2467;48.142;11.616;2023-02-15T00:09:48;2.40;99.90
4904;DHT22;2467;48.142;11.616;2023-02-15T00:10:21;2.40;99.90
4904;DHT22;2467;48.142;11.616;2023-02-15T00:11:03;2.40;99.90
4904;DHT22;2467;48.142;11.616;2023-02-15T00:11:36;2.40;99.90
4904;DHT22;2467;48.142;11.616;2023-02-15T00:12:11;2.40;99.90
4904;DHT22;2467;48.142;11.616;2023-02-15T00:12:44;2.30;99.90
4904;DHT22;2467;48.142;11.616;2023-02-15T00:13:16;2.40;99.90
4904;DHT22;2467;48.142;11.616;2023-02-15T00:13:48;2.30;99.90
4904;DHT22;2467;48.142;11.616;2023-02-15T00:14:22;2.30;99.90
4904;DHT22;2467;48.142;11.616;2023-02-15T00:14:55;2.30;99.90
4904;DHT22;2467;48.142;11.616;2023-02-15T00:15:27;2.30;99.90
4904;DHT22;2467;48.142;11.616;2023-02-15T00:16:01;2.30;99.90
4904;DHT22;2467;48.142;11.616;2023-02-15T00:16:34;2.30;99.90
4904;DHT22;2467;48.142;11.616;2023-02-15T00:17:06;2.30;99.90
4904;DHT22;2467;48.142;11.616;2023-02-15T00:17:39;2.30;99.90
4904;DHT22;2467;48.142;11.616;2023-02-15T00:18:10;2.30;99.90
4904;DHT22;2467;48.142;11.616;2023-02-15T00:18:42;2.40;99.90
4904;DHT22;2467;48.142;11.616;2023-02-15T00:19:15;2.30;99.90
4904;DHT22;2467;48.142;11.616;2023-02-15T00:19:49;2.40;99.90
4904;DHT22;2467;48.142;11.616;2023-02-15T00:20:21;2.40;99.90
4904;DHT22;2467;48.142;11.616;2023-02-15T00:20:53;2.40;99.90
4904;DHT22;2467;48.142;11.616;2023-02-15T00:21:26;2.40;99.90
4904;DHT22;2467;48.142;11.616;2023-02-15T00:21:57;2.40;99.90
4904;DHT22;2467;48.142;11.616;2023-02-15T00:22:29;2.40;99.90
4904;DHT22;2467;48.142;11.616;2023-02-15T00:23:02;2.50;99.90
4904;DHT22;2467;48.142;11.616;2023-02-15T00:23:34;2.50;99.90
4904;DHT22;2467;48.142;11.616;2023-02-15T00:24:08;2.50;99.90
4904;DHT22;2467;48.142;11.616;2023-02-15T00:24:42;2.50;99.90
4904;DHT22;2467;48.142;11.616;2023-02-15T00:25:14;2.50;99.90
4904;DHT22;2467;48.142;11.616;2023-02-15T00:25:46;2.50;99.90
4904;DHT22;2467;48.142;11.616;2023-02-15T00:26:19;2.50;99.90
4904;DHT22;2467;48.142;11.616;2023-02-15T00:26:51;2.40;99.90
4904;DHT22;2467;48.142;11.616;2023-02-15T00:27:24;2.30;99.90
4904;DHT22;2467;48.142;11.616;2023-02-15T00:27:56;2.30;99.90
4904;DHT22;2467;48.142;11.616;2023-02-15T00:28:28;2.30;99.90
4904;DHT22;2467;48.142;11.616;2023-02-15T00:29:01;2.30;99.90
4904;DHT22;2467;48.142;11.616;2023-02-15T00:29:33;2.20;99.90
4904;DHT22;2467;48.142;11.616;2023-02-15T00:30:07;2.20;99.90
4904;DHT22;2467;48.142;11.616;2023-02-15T00:30:40;2.30;99.90
4904;DHT22;2467;48.142;11.616;2023-02-15T00:31:12;2.30;99.90
4904;DHT22;2467;48.142;11.616;2023-02-15T00:31:44;2.30;99.90
4904;DHT22;2467;48.142;11.616;2023-02-15T00:32:17;2.30;99.90
4904;DHT22;2467;48.142;11.616;2023-02-15T00:32:49;2.30;99.90
4904;DHT22;2467;48.142;11.616;2023-02-15T00:33:24;2.30;99.90
4904;DHT22;2467;48.142;11.616;2023-02-15T00:34:01;2.40;99.90
4904;DHT22;2467;48.142;11.616;2023-02-15T00:34:34;2.40;99.90
4904;DHT22;2467;48.142;11.616;2023-02-15T00:35:06;2.30;99.90
4904;DHT22;2467;48.142;11.616;2023-02-15T00:35:38;2.30;99.90
4904;DHT22;2467;48.142;11.616;2023-02-15T00:36:11;2.30;99.90
4904;DHT22;2467;48.142;11.616;2023-02-15T00:36:44;2.30;99.90
4904;DHT22;2467;48.142;11.616;2023-02-15T00:37:16;2.30;99.90
4904;DHT22;2467;48.142;11.616;2023-02-15T00:37:49;2.30;99.90
4904;DHT22;2467;48.142;11.616;2023-02-15T00:38:21;2.30;99.90
4904;DHT22;2467;48.142;11.616;2023-02-15T00:38:52;2.30;99.90
4904;DHT22;2467;48.142;11.616;2023-02-15T00:39:24;2.30;99.90
4904;DHT22;2467;48.142;11.616;2023-02-15T00:39:58;2.30;99.90
4904;DHT22;2467;48.142;11.616;2023-02-15T00:40:30;2.30;99.90
4904;DHT22;2467;48.142;11.616;2023-02-15T00:41:04;2.30;99.90
4904;DHT22;2467;48.142;11.616;2023-02-15T00:41:36;2.30;99.90
4904;DHT22;2467;48.142;11.616;2023-02-15T00:42:09;2.30;99.90
4904;DHT22;2467;48.142;11.616;2023-02-15T00:42:41;2.30;99.90
4904;DHT22;2467;48.142;11.616;2023-02-15T00:43:12;2.40;99.90
4904;DHT22;2467;48.142;11.616;2023-02-15T00:43:45;2.30;99.90
4904;DHT22;2467;48.142;11.616;2023-02-15T00:44:17;2.30;99.90
4904;DHT22;2467;48.142;11.616;2023-02-15T00:44:49;2.30;99.90
4904;DHT22;2467;48.142;11.616;2023-02-15T00:45:23;2.30;99.90
4904;DHT22;2467;48.142;11.616;2023-02-15T00:45:55;2.30;99.90
4904;DHT22;2467;48.142;11.616;2023-02-15T00:46:27;2.30;99.90
4904;DHT22;2467;48.142;11.616;2023-02-15T00:47:00;2.30;99.90
4904;DHT22;2467;48.142;11.616;2023-02-15T00:47:32;2.30;99.90
4904;DHT22;2467;48.142;11.616;2023-02-15T00:48:04;2.30;99.90
4904;DHT22;2467;48.142;11.616;2023-02-15T00:48:37;2.30;99.90
4904;DHT22;2467;48.142;11.616;2023-02-15T00:49:09;2.40;99.90
4904;DHT22;2467;48.142;11.616;2023-02-15T00:49:41;2.40;99.90
4904;DHT22;2467;48.142;11.616;2023-02-15T00:50:14;2.40;99.90
4904;DHT22;2467;48.142;11.616;2023-02-15T00:50:46;2.40;99.90
4904;DHT22;2467;48.142;11.616;2023-02-15T00:51:18;2.40;99.90
4904;DHT22;2467;48.142;11.616;2023-02-15T00:51:51;2.40;99.90
4904;DHT22;2467;48.142;11.616;2023-02-15T00:52:23;2.40;99.90
4904;DHT22;2467;48.142;11.616;2023-02-15T00:52:55;2.40;99.90
4904;DHT22;2467;48.142;11.616;2023-02-15T00:53:28;2.40;99.90
4904;DHT22;2467;48.142;11.616;2023-02-15T00:54:00;2.40;99.90
4904;DHT22;2467;48.142;11.616;2023-02-15T00:54:32;2.40;99.90
4904;DHT22;2467;48.142;11.616;2023-02-15T00:55:06;2.40;99.90
4904;DHT22;2467;48.142;11.616;2023-02-15T00:55:38;2.40;99.90
4904;DHT22;2467;48.142;11.616;2023-02-15T00:56:11;2.50;99.90
4904;DHT22;2467;48.142;11.616;2023-02-15T00:56:44;2.40;99.90
4904;DHT22;2467;48.142;11.616;2023-02-15T00:57:16;2.40;99.90
4904;DHT22;2467;48.142;11.616;2023-02-15T00:57:48;2.40;99.90
4904;DHT22;2467;48.142;11.616;2023-02-15T00:58:21;2.40;99.90
4904;DHT22;2467;48.142;11.616;2023-02-15T00:58:53;2.50;99.90
4904;DHT22;2467;48.142;11.616;2023-02-15T00:59:25;2.40;99.90
4904;DHT22;2467;48.142;11.616;2023-02-15T00:59:57;2.40;99.90
4904;DHT22;2467;48.142;11.616;2023-02-15T01:00:31;2.40;99.90
4904;DHT22;2467;48.142;11.616;2023-02-15T01:01:05;2.40;99.90
4904;DHT22;2467;48.142;11.616;2023-02-15T01:01:38;2.40;99.90
4904;DHT22;2467;48.142;11.616;2023-02-15T01:02:10;2.40;99.90
4904;DHT22;2467;48.142;11.616;2023-02-15T01:02:41;2.40;99.90
4904;DHT22;2467;48.142;11.616;2023-02-15T01:03:16;2.40;99.90
4904;DHT22;2467;48.142;11.616;2023-02-15T01:03:49;2.40;99.90
4904;DHT22;2467;48.142;11.616;2023-02-15T01:04:21;2.40;99.90
4904;DHT22;2467;48.142;11.616;2023-02-15T01:04:53;2.40;99.90
4904;DHT22;2467;48.142;11.616;2023-02-15T01:05:25;2.40;99.90
4904;DHT22;2467;48.142;11.616;2023-02-15T01:05:57;2.40;99.90
4904;DHT22;2467;48.142;11.616;2023-02-15T01:06:30;2.40;99.90
4904;DHT22;2467;48.142;11.616;2023-02-15T01:07:02;2.30;99.90
4904;DHT22;2467;48.142;11.616;2023-02-15T01:07:35;2.30;99.90
4904;DHT22;2467;48.142;11.616;2023-02-15T01:08:07;2.30;99.90
4904;DHT22;2467;48.142;11.616;2023-02-15T01:08:39;2.30;99.90
4904;DHT22;2467;48.142;11.616;2023-02-15T01:09:12;2.30;99.90
4904;DHT22;2467;48.142;11.616;2023-02-15T01:09:45;2.20;99.90
4904;DHT22;2467;48.142;11.616;2023-02-15T01:10:18;2.20;99.90
4904;DHT22;2467;48.142;11.616;2023-02-15T01:10:49;2.30;99.90
4904;DHT22;2467;48.142;11.616;2023-02-15T01:11:22;2.20;99.90
4904;DHT22;2467;48.142;11.616;2023-02-15T01:11:55;2.30;99.90
4904;DHT22;2467;48.142;11.616;2023-02-15T01:12:27;2.30;99.90
4904;DHT22;2467;48.142;11.616;2023-02-15T01:12:59;2.20;99.90
4904;DHT22;2467;48.142;11.616;2023-02-15T01:13:32;2.20;99.90
4904;DHT22;2467;48.142;11.616;2023-02-15T01:14:04;2.10;99.90
4904;DHT22;2467;48.142;11.616;2023-02-15T01:14:37;2.10;99.90
4904;DHT22;2467;48.142;11.616;2023-02-15T01:15:09;2.10;99.90
4904;DHT22;2467;48.142;11.616;2023-02-15T01:15:42;2.10;99.90
4904;DHT22;2467;48.142;11.616;2023-02-15T01:16:14;2.10;99.90
4904;DHT22;2467;48.142;11.616;2023-02-15T01:16:47;2.10;99.90
4904;DHT22;2467;48.142;11.616;2023-02-15T01:17:19;2.10;99.90
4904;DHT22;2467;48.142;11.616;2023-02-15T01:17:51;2.10;99.90
4904;DHT22;2467;48.142;11.616;2023-02-15T01:18:24;2.20;99.90
4904;DHT22;2467;48.142;11.616;2023-02-15T01:18:56;2.20;99.90
4904;DHT22;2467;48.142;11.616;2023-02-15T01:19:28;2.20;99.90
4904;DHT22;2467;48.142;11.616;2023-02-15T01:20:01;2.20;99.90
4904;DHT22;2467;48.142;11.616;2023-02-15T01:20:35;2.20;99.90
4904;DHT22;2467;48.142;11.616;2023-02-15T01:21:11;2.10;99.90
4904;DHT22;2467;48.142;11.616;2023-02-15T01:21:45;2.10;99.90
4904;DHT22;2467;48.142;11.616;2023-02-15T01:22:17;2.10;99.90
4904;DHT22;2467;48.142;11.616;2023-02-15T01:22:49;2.10;99.90
4904;DHT22;2467;48.142;11.616;2023-02-15T01:23:22;2.10;99.90
4904;DHT22;2467;48.142;11.616;2023-02-15T01:23:54;2.10;99.90
4904;DHT22;2467;48.142;11.616;2023-02-15T01:24:26;2.20;99.90
4904;DHT22;2467;48.142;11.616;2023-02-15T01:24:59;2.20;99.90
4904;DHT22;2467;48.142;11.616;2023-02-15T01:25:32;2.20;99.90
4904;DHT22;2467;48.142;11.616;2023-02-15T01:26:04;2.20;99.90
4904;DHT22;2467;48.142;11.616;2023-02-15T01:26:37;2.20;99.90
4904;DHT22;2467;48.142;11.616;2023-02-15T01:27:09;2.20;99.90
4904;DHT22;2467;48.142;11.616;2023-02-15T01:27:41;2.20;99.90
4904;DHT22;2467;48.142;11.616;2023-02-15T01:28:14;2.20;99.90
4904;DHT22;2467;48.142;11.616;2023-02-15T01:28:46;2.20;99.90
4904;DHT22;2467;48.142;11.616;2023-02-15T01:29:18;2.20;99.90
4904;DHT22;2467;48.142;11.616;2023-02-15T01:29:51;2.20;99.90
4904;DHT22;2467;48.142;11.616;2023-02-15T01:30:23;2.20;99.90
4904;DHT22;2467;48.142;11.616;2023-02-15T01:30:56;2.20;99.90
4904;DHT22;2467;48.142;11.616;2023-02-15T01:31:28;2.20;99.90
4904;DHT22;2467;48.142;11.616;2023-02-15T01:32:01;2.20;99.90
4904;DHT22;2467;48.142;11.616;2023-02-15T01:32:33;2.20;99.90
4904;DHT22;2467;48.142;11.616;2023-02-15T01:33:05;2.10;99.90
4904;DHT22;2467;48.142;11.616;2023-02-15T01:33:38;2.10;99.90
4904;DHT22;2467;48.142;11.616;2023-02-15T01:34:10;2.10;99.90
4904;DHT22;2467;48.142;11.616;2023-02-15T01:34:42;2.10;99.90
4904;DHT22;2467;48.142;11.616;2023-02-15T01:35:15;2.10;99.90
4904;DHT22;2467;48.142;11.616;2023-02-15T01:35:46;2.10;99.90
4904;DHT22;2467;48.142;11.616;2023-02-15T01:36:18;2.10;99.90
4904;DHT22;2467;48.142;11.616;2023-02-15T01:36:51;2.00;99.90
4904;DHT22;2467;48.142;11.616;2023-02-15T01:37:23;2.00;99.90
4904;DHT22;2467;48.142;11.616;2023-02-15T01:37:55;2.00;99.90
4904;DHT22;2467;48.142;11.616;2023-02-15T01:38:27;2.00;99.90
4904;DHT22;2467;48.142;11.616;2023-02-15T01:39:00;2.00;99.90
4904;DHT22;2467;48.142;11.616;2023-02-15T01:39:32;2.10;99.90
4904;DHT22;2467;48.142;11.616;2023-02-15T01:40:07;2.10;99.90
4904;DHT22;2467;48.142;11.616;2023-02-15T01:40:40;2.00;99.90
4904;DHT22;2467;48.142;11.616;2023-02-15T01:41:12;2.10;99.90
4904;DHT22;2467;48.142;11.616;2023-02-15T01:41:55;2.10;99.90
4904;DHT22;2467;48.142;11.616;2023-02-15T01:42:28;2.10;99.90
4904;DHT22;2467;48.142;11.616;2023-02-15T01:43:00;2.10;99.90
4904;DHT22;2467;48.142;11.616;2023-02-15T01:43:40;2.10;99.90
4904;DHT22;2467;48.142;11.616;2023-02-15T01:44:46;2.10;99.90
4904;DHT22;2467;48.142;11.616;2023-02-15T01:45:22;2.10;99.90
4904;DHT22;2467;48.142;11.616;2023-02-15T01:45:56;2.10;99.90
4904;DHT22;2467;48.142;11.616;2023-02-15T01:46:32;2.10;99.90
4904;DHT22;2467;48.142;11.616;2023-02-15T01:47:06;2.10;99.90
4904;DHT22;2467;48.142;11.616;2023-02-15T01:47:42;2.10;99.90
4904;DHT22;2467;48.142;11.616;2023-02-15T01:48:20;2.10;99.90
4904;DHT22;2467;48.142;11.616;2023-02-15T01:48:56;2.10;99.90
4904;DHT22;2467;48.142;11.616;2023-02-15T01:49:31;2.00;99.90
4904;DHT22;2467;48.142;11.616;2023-02-15T01:50:09;2.00;99.90
4904;DHT22;2467;48.142;11.616;2023-02-15T01:50:43;2.00;99.90
4904;DHT22;2467;48.142;11.616;2023-02-15T01:51:18;2.00;99.90
4904;DHT22;2467;48.142;11.616;2023-02-15T01:51:54;1.90;99.90
4904;DHT22;2467;48.142;11.616;2023-02-15T01:52:26;1.90;99.90
4904;DHT22;2467;48.142;11.616;2023-02-15T01:53:01;1.90;99.90
4904;DHT22;2467;48.142;11.616;2023-02-15T01:53:36;1.90;99.90
4904;DHT22;2467;48.142;11.616;2023-02-15T01:54:15;1.90;99.90
4904;DHT22;2467;48.142;11.616;2023-02-15T01:54:49;2.00;99.90
4904;DHT22;2467;48.142;11.616;2023-02-15T01:55:22;1.90;99.90
4904;DHT22;2467;48.142;11.616;2023-02-15T01:55:57;1.90;99.90
4904;DHT22;2467;48.142;11.616;2023-02-15T01:56:34;1.90;99.90
4904;DHT22;2467;48.142;11.616;2023-02-15T01:57:11;1.90;99.90
4904;DHT22;2467;48.142;11.616;2023-02-15T01:57:45;1.90;99.90
4904;DHT22;2467;48.142;11.616;2023-02-15T01:58:19;1.90;99.90
4904;DHT22;2467;48.142;11.616;2023-02-15T01:58:54;1.90;99.90
4904;DHT22;2467;48.142;11.616;2023-02-15T01:59:26;1.90;99.90
4904;DHT22;2467;48.142;11.616;2023-02-15T02:00:02;1.90;99.90
4904;DHT22;2467;48.142;11.616;2023-02-15T02:00:35;1.70;99.90
4904;DHT22;2467;48.142;11.616;2023-02-15T02:01:08;1.90;99.90
4904;DHT22;2467;48.142;11.616;2023-02-15T02:01:41;1.90;99.90
4904;DHT22;2467;48.142;11.616;2023-02-15T02:02:14;1.90;99.90
4904;DHT22;2467;48.142;11.616;2023-02-15T02:02:50;1.90;99.90
4904;DHT22;2467;48.142;11.616;2023-02-15T02:03:30;1.90;99.90
4904;DHT22;2467;48.142;11.616;2023-02-15T02:04:12;1.90;99.90
4904;DHT22;2467;48.142;11.616;2023-02-15T02:04:48;1.90;99.90
4904;DHT22;2467;48.142;11.616;2023-02-15T02:05:20;1.90;99.90
4904;DHT22;2467;48.142;11.616;2023-02-15T02:05:52;1.90;99.90
4904;DHT22;2467;48.142;11.616;2023-02-15T02:06:26;1.90;99.90
4904;DHT22;2467;48.142;11.616;2023-02-15T02:06:58;1.90;99.90
4904;DHT22;2467;48.142;11.616;2023-02-15T02:07:33;1.90;99.90
4904;DHT22;2467;48.142;11.616;2023-02-15T02:08:08;2.10;99.90
4904;DHT22;2467;48.142;11.616;2023-02-15T02:08:42;1.90;99.90
4904;DHT22;2467;48.142;11.616;2023-02-15T02:09:14;2.00;99.90
4904;DHT22;2467;48.142;11.616;2023-02-15T02:09:48;2.00;99.90
4904;DHT22;2467;48.142;11.616;2023-02-15T02:10:22;2.00;99.90
4904;DHT22;2467;48.142;11.616;2023-02-15T02:10:54;2.00;99.90
4904;DHT22;2467;48.142;11.616;2023-02-15T02:11:27;2.00;99.90
4904;DHT22;2467;48.142;11.616;2023-02-15T02:12:00;2.10;99.90
4904;DHT22;2467;48.142;11.616;2023-02-15T02:12:32;2.10;99.90
4904;DHT22;2467;48.142;11.616;2023-02-15T02:13:06;2.10;99.90
4904;DHT22;2467;48.142;11.616;2023-02-15T02:13:39;2.10;99.90
4904;DHT22;2467;48.142;11.616;2023-02-15T02:14:12;2.10;99.90
4904;DHT22;2467;48.142;11.616;2023-02-15T02:14:44;2.10;99.90
4904;DHT22;2467;48.142;11.616;2023-02-15T02:15:17;2.10;99.90
4904;DHT22;2467;48.142;11.616;2023-02-15T02:15:57;2.10;99.90
4904;DHT22;2467;48.142;11.616;2023-02-15T02:16:39;2.10;99.90
4904;DHT22;2467;48.142;11.616;2023-02-15T02:17:18;2.10;99.90
4904;DHT22;2467;48.142;11.616;2023-02-15T02:18:01;2.10;99.90
4904;DHT22;2467;48.142;11.616;2023-02-15T02:18:41;2.10;99.90
4904;DHT22;2467;48.142;11.616;2023-02-15T02:20:28;2.10;99.90
4904;DHT22;2467;48.142;11.616;2023-02-15T02:21:28;2.10;99.90
4904;DHT22;2467;48.142;11.616;2023-02-15T02:22:15;2.10;99.90
4904;DHT22;2467;48.142;11.616;2023-02-15T02:23:31;2.10;99.90
4904;DHT22;2467;48.142;11.616;2023-02-15T02:24:23;2.10;99.90
4904;DHT22;2467;48.142;11.616;2023-02-15T02:25:23;2.10;99.90
4904;DHT22;2467;48.142;11.616;2023-02-15T02:26:44;2.10;99.90
4904;DHT22;2467;48.142;11.616;2023-02-15T02:27:34;2.10;99.90
4904;DHT22;2467;48.142;11.616;2023-02-15T02:28:25;2.10;99.90
4904;DHT22;2467;48.142;11.616;2023-02-15T02:29:20;2.10;99.90
4904;DHT22;2467;48.142;11.616;2023-02-15T02:30:25;2.10;99.90
4904;DHT22;2467;48.142;11.616;2023-02-15T02:31:18;2.10;99.90
4904;DHT22;2467;48.142;11.616;2023-02-15T02:32:17;2.10;99.90
4904;DHT22;2467;48.142;11.616;2023-02-15T02:33:18;2.00;99.90
4904;DHT22;2467;48.142;11.616;2023-02-15T02:34:01;2.00;99.90
4904;DHT22;2467;48.142;11.616;2023-02-15T02:34:40;2.00;99.90
4904;DHT22;2467;48.142;11.616;2023-02-15T02:35:18;2.00;99.90
4904;DHT22;2467;48.142;11.616;2023-02-15T02:36:00;2.10;99.90
4904;DHT22;2467;48.142;11.616;2023-02-15T02:36:38;2.10;99.90
4904;DHT22;2467;48.142;11.616;2023-02-15T02:37:16;2.10;99.90
4904;DHT22;2467;48.142;11.616;2023-02-15T02:37:56;2.10;99.90
4904;DHT22;2467;48.142;11.616;2023-02-15T02:38:37;2.10;99.90
4904;DHT22;2467;48.142;11.616;2023-02-15T02:39:23;2.10;99.90
4904;DHT22;2467;48.142;11.616;2023-02-15T02:40:04;2.10;99.90
4904;DHT22;2467;48.142;11.616;2023-02-15T02:40:50;2.10;99.90
4904;DHT22;2467;48.142;11.616;2023-02-15T02:41:30;2.10;99.90
4904;DHT22;2467;48.142;11.616;2023-02-15T02:42:09;2.10;99.90
4904;DHT22;2467;48.142;11.616;2023-02-15T02:42:45;2.10;99.90
4904;DHT22;2467;48.142;11.616;2023-02-15T02:43:25;2.10;99.90
4904;DHT22;2467;48.142;11.616;2023-02-15T02:44:07;2.10;99.90
4904;DHT22;2467;48.142;11.616;2023-02-15T02:44:42;2.00;99.90
4904;DHT22;2467;48.142;11.616;2023-02-15T02:45:20;2.00;99.90
4904;DHT22;2467;48.142;11.616;2023-02-15T02:45:58;2.00;99.90
4904;DHT22;2467;48.142;11.616;2023-02-15T02:46:35;2.00;99.90
4904;DHT22;2467;48.142;11.616;2023-02-15T02:47:12;1.90;99.90
4904;DHT22;2467;48.142;11.616;2023-02-15T02:47:50;1.90;99.90
4904;DHT22;2467;48.142;11.616;2023-02-15T02:48:26;1.90;99.90
4904;DHT22;2467;48.142;11.616;2023-02-15T02:48:59;1.90;99.90
4904;DHT22;2467;48.142;11.616;2023-02-15T02:49:34;1.90;99.90
4904;DHT22;2467;48.142;11.616;2023-02-15T02:50:08;1.90;99.90
4904;DHT22;2467;48.142;11.616;2023-02-15T02:50:41;2.00;99.90
4904;DHT22;2467;48.142;11.616;2023-02-15T02:51:14;2.00;99.90
4904;DHT22;2467;48.142;11.616;2023-02-15T02:51:58;2.00;99.90
4904;DHT22;2467;48.142;11.616;2023-02-15T02:52:40;2.00;99.90
4904;DHT22;2467;48.142;11.616;2023-02-15T02:53:13;2.00;99.90
4904;DHT22;2467;48.142;11.616;2023-02-15T02:53:45;2.00;99.90
4904;DHT22;2467;48.142;11.616;2023-02-15T02:54:17;2.00;99.90
4904;DHT22;2467;48.142;11.616;2023-02-15T02:54:50;2.00;99.90
4904;DHT22;2467;48.142;11.616;2023-02-15T02:55:38;2.00;99.90
4904;DHT22;2467;48.142;11.616;2023-02-15T02:56:21;2.00;99.90
4904;DHT22;2467;48.142;11.616;2023-02-15T02:56:55;2.00;99.90
4904;DHT22;2467;48.142;11.616;2023-02-15T02:57:28;2.00;99.90
4904;DHT22;2467;48.142;11.616;2023-02-15T02:58:03;2.00;99.90
4904;DHT22;2467;48.142;11.616;2023-02-15T02:58:40;2.00;99.90
4904;DHT22;2467;48.142;11.616;2023-02-15T02:59:18;2.00;99.90
4904;DHT22;2467;48.142;11.616;2023-02-15T02:59:52;2.00;99.90
4904;DHT22;2467;48.142;11.616;2023-02-15T03:00:29;2.00;99.90
4904;DHT22;2467;48.142;11.616;2023-02-15T03:01:04;1.90;99.90
4904;DHT22;2467;48.142;11.616;2023-02-15T03:01:41;1.90;99.90
4904;DHT22;2467;48.142;11.616;2023-02-15T03:02:18;1.90;99.90
4904;DHT22;2467;48.142;11.616;2023-02-15T03:02:56;1.90;99.90
4904;DHT22;2467;48.142;11.616;2023-02-15T03:03:37;1.90;99.90
4904;DHT22;2467;48.142;11.616;2023-02-15T03:04:14;1.90;99.90
4904;DHT22;2467;48.142;11.616;2023-02-15T03:04:49;1.90;99.90
4904;DHT22;2467;48.142;11.616;2023-02-15T03:05:30;1.90;99.90
4904;DHT22;2467;48.142;11.616;2023-02-15T03:06:06;2.00;99.90
4904;DHT22;2467;48.142;11.616;2023-02-15T03:06:41;2.00;99.90
4904;DHT22;2467;48.142;11.616;2023-02-15T03:07:20;2.00;99.90
4904;DHT22;2467;48.142;11.616;2023-02-15T03:07:55;2.00;99.90
4904;DHT22;2467;48.142;11.616;2023-02-15T03:08:32;2.10;99.90
4904;DHT22;2467;48.142;11.616;2023-02-15T03:09:09;2.10;99.90
4904;DHT22;2467;48.142;11.616;2023-02-15T03:09:54;2.10;99.90
4904;DHT22;2467;48.142;11.616;2023-02-15T03:10:27;2.10;99.90
4904;DHT22;2467;48.142;11.616;2023-02-15T03:11:02;2.00;99.90
4904;DHT22;2467;48.142;11.616;2023-02-15T03:11:35;2.10;99.90
4904;DHT22;2467;48.142;11.616;2023-02-15T03:12:08;2.10;99.90
4904;DHT22;2467;48.142;11.616;2023-02-15T03:12:40;2.10;99.90
4904;DHT22;2467;48.142;11.616;2023-02-15T03:13:14;2.10;99.90
4904;DHT22;2467;48.142;11.616;2023-02-15T03:13:47;2.10;99.90
4904;DHT22;2467;48.142;11.616;2023-02-15T03:14:20;2.10;99.90
4904;DHT22;2467;48.142;11.616;2023-02-15T03:14:55;2.10;99.90
4904;DHT22;2467;48.142;11.616;2023-02-15T03:15:31;2.10;99.90
4904;DHT22;2467;48.142;11.616;2023-02-15T03:16:23;2.10;99.90
4904;DHT22;2467;48.142;11.616;2023-02-15T03:16:58;2.10;99.90
4904;DHT22;2467;48.142;11.616;2023-02-15T03:17:34;2.00;99.90
4904;DHT22;2467;48.142;11.616;2023-02-15T03:18:07;1.90;99.90
4904;DHT22;2467;48.142;11.616;2023-02-15T03:18:43;1.90;99.90
4904;DHT22;2467;48.142;11.616;2023-02-15T03:19:28;1.90;99.90
4904;DHT22;2467;48.142;11.616;2023-02-15T03:20:04;1.80;99.90
4904;DHT22;2467;48.142;11.616;2023-02-15T03:20:39;1.80;99.90
4904;DHT22;2467;48.142;11.616;2023-02-15T03:21:11;1.80;99.90
4904;DHT22;2467;48.142;11.616;2023-02-15T03:21:56;1.80;99.90
4904;DHT22;2467;48.142;11.616;2023-02-15T03:22:37;1.80;99.90
4904;DHT22;2467;48.142;11.616;2023-02-15T03:23:13;1.80;99.90
4904;DHT22;2467;48.142;11.616;2023-02-15T03:23:51;1.90;99.90
4904;DHT22;2467;48.142;11.616;2023-02-15T03:24:28;1.90;99.90
4904;DHT22;2467;48.142;11.616;2023-02-15T03:25:06;1.90;99.90
4904;DHT22;2467;48.142;11.616;2023-02-15T03:25:41;2.00;99.90
4904;DHT22;2467;48.142;11.616;2023-02-15T03:26:14;2.00;99.90
4904;DHT22;2467;48.142;11.616;2023-02-15T03:26:49;2.00;99.90
4904;DHT22;2467;48.142;11.616;2023-02-15T03:27:24;2.00;99.90
4904;DHT22;2467;48.142;11.616;2023-02-15T03:28:00;2.00;99.90
4904;DHT22;2467;48.142;11.616;2023-02-15T03:28:36;2.00;99.90
4904;DHT22;2467;48.142;11.616;2023-02-15T03:29:10;2.00;99.90
4904;DHT22;2467;48.142;11.616;2023-02-15T03:29:45;2.00;99.90
4904;DHT22;2467;48.142;11.616;2023-02-15T03:30:21;2.00;99.90
4904;DHT22;2467;48.142;11.616;2023-02-15T03:30:58;2.00;99.90
4904;DHT22;2467;48.142;11.616;2023-02-15T03:31:37;2.00;99.90
4904;DHT22;2467;48.142;11.616;2023-02-15T03:32:11;1.90;99.90
4904;DHT22;2467;48.142;11.616;2023-02-15T03:32:46;1.90;99.90
4904;DHT22;2467;48.142;11.616;2023-02-15T03:33:20;1.90;99.90
4904;DHT22;2467;48.142;11.616;2023-02-15T03:33:58;1.90;99.90
4904;DHT22;2467;48.142;11.616;2023-02-15T03:34:31;2.00;99.90
4904;DHT22;2467;48.142;11.616;2023-02-15T03:35:04;1.90;99.90
4904;DHT22;2467;48.142;11.616;2023-02-15T03:35:41;1.90;99.90
4904;DHT22;2467;48.142;11.616;2023-02-15T03:36:18;2.00;99.90
4904;DHT22;2467;48.142;11.616;2023-02-15T03:36:59;2.00;99.90
4904;DHT22;2467;48.142;11.616;2023-02-15T03:37:35;2.00;99.90
4904;DHT22;2467;48.142;11.616;2023-02-15T03:38:11;2.00;99.90
4904;DHT22;2467;48.142;11.616;2023-02-15T03:38:49;2.00;99.90
4904;DHT22;2467;48.142;11.616;2023-02-15T03:39:26;2.00;99.90
4904;DHT22;2467;48.142;11.616;2023-02-15T03:40:07;2.00;99.90
4904;DHT22;2467;48.142;11.616;2023-02-15T03:40:59;2.00;99.90
4904;DHT22;2467;48.142;11.616;2023-02-15T03:41:48;1.90;99.90
4904;DHT22;2467;48.142;11.616;2023-02-15T03:42:25;1.90;99.90
4904;DHT22;2467;48.142;11.616;2023-02-15T03:43:01;1.80;99.90
4904;DHT22;2467;48.142;11.616;2023-02-15T03:43:44;1.80;99.90
4904;DHT22;2467;48.142;11.616;2023-02-15T03:44:24;1.90;99.90
4904;DHT22;2467;48.142;11.616;2023-02-15T03:44:59;1.90;99.90
4904;DHT22;2467;48.142;11.616;2023-02-15T03:45:35;1.90;99.90
4904;DHT22;2467;48.142;11.616;2023-02-15T03:46:13;1.90;99.90
4904;DHT22;2467;48.142;11.616;2023-02-15T03:46:49;1.90;99.90
4904;DHT22;2467;48.142;11.616;2023-02-15T03:47:27;1.90;99.90
4904;DHT22;2467;48.142;11.616;2023-02-15T03:48:00;1.90;99.90
4904;DHT22;2467;48.142;11.616;2023-02-15T03:48:36;1.80;99.90
4904;DHT22;2467;48.142;11.616;2023-02-15T03:49:17;1.70;99.90
4904;DHT22;2467;48.142;11.616;2023-02-15T03:49:54;1.70;99.90
4904;DHT22;2467;48.142;11.616;2023-02-15T03:50:29;1.60;99.90
4904;DHT22;2467;48.142;11.616;2023-02-15T03:51:25;1.70;99.90
4904;DHT22;2467;48.142;11.616;2023-02-15T03:52:09;1.70;99.90
4904;DHT22;2467;48.142;11.616;2023-02-15T03:52:42;1.70;99.90
4904;DHT22;2467;48.142;11.616;2023-02-15T03:53:18;1.70;99.90
4904;DHT22;2467;48.142;11.616;2023-02-15T03:53:53;1.70;99.90